Time;durP1;ratioP1;P1;durP2;ratioP2;P2;SDS_P1;SDS_P2;PMS_P1;PMS_P2;Temp;Humidity;BMP_temperature;BMP_pressure;BME280_temperature;BME280_humidity;BME280_pressure;Samples;Min_cycle;Max_cycle;Signal;HPM_P1;HPM_P2
2022/02/05 00:02:46;;;;;;;11.80;2.92;;;5.20;87.40;;;;;;9179687;19;20514;-67
2022/02/05 00:05:57;;;;;;;10.20;2.08;;;5.20;87.40;;;;;;9180644;19;20018;-66
2022/02/05 00:09:11;;;;;;;10.68;2.05;;;5.20;87.40;;;;;;9176412;19;20018;-66
2022/02/05 00:12:32;;;;;;;8.55;2.20;;;5.20;87.50;;;;;;9178503;19;20049;-66
2022/02/05 00:15:50;;;;;;;10.32;2.55;;;5.30;87.50;;;;;;9176678;19;20056;-66
2022/02/05 00:42:26;;;;;;;5.60;1.90;;;5.10;87.40;;;;;;9176230;19;20010;-66
2022/02/05 00:45:33;;;;;;;7.50;2.42;;;5.10;87.40;;;;;;9178204;19;20010;-66
2022/02/05 00:48:37;;;;;;;16.17;2.05;;;5.10;87.40;;;;;;9179543;19;20014;-66
2022/02/05 00:51:47;;;;;;;10.13;2.42;;;5.10;87.40;;;;;;9175759;19;20021;-66
2022/02/05 00:55:03;;;;;;;6.88;1.92;;;5.10;87.50;;;;;;9174813;19;20027;-66
2022/02/05 00:58:08;;;;;;;6.72;1.65;;;5.00;87.30;;;;;;9175529;19;20021;-66
2022/02/05 01:01:14;;;;;;;14.45;1.98;;;5.00;87.30;;;;;;9177963;19;20776;-67
2022/02/05 01:04:19;;;;;;;17.73;2.58;;;5.00;87.40;;;;;;9177473;19;20029;-66
2022/02/05 01:07:24;;;;;;;8.18;2.00;;;5.00;87.40;;;;;;9174751;19;20744;-67
2022/02/05 01:10:32;;;;;;;12.85;2.70;;;5.00;87.50;;;;;;9173597;19;20026;-66
2022/02/05 01:13:37;;;;;;;8.93;2.42;;;5.00;87.50;;;;;;9175420;19;20025;-66
2022/02/05 01:16:52;;;;;;;4.43;1.70;;;5.00;87.50;;;;;;9175898;19;20015;-66
2022/02/05 01:20:28;;;;;;;11.45;2.50;;;5.00;87.50;;;;;;9174256;19;20011;-66
2022/02/05 01:23:40;;;;;;;12.40;1.83;;;5.00;87.50;;;;;;9177471;19;20019;-66
2022/02/05 01:26:52;;;;;;;10.88;2.75;;;5.00;87.50;;;;;;9175367;19;20468;-66
2022/02/05 01:30:08;;;;;;;15.10;2.78;;;5.00;87.50;;;;;;9175815;19;20260;-66
2022/02/05 01:33:32;;;;;;;15.68;2.38;;;5.00;87.50;;;;;;9175952;19;20010;-66
2022/02/05 01:54:11;;;;;;;10.57;1.80;;;5.00;87.40;;;;;;9172448;19;20010;-66
2022/02/05 01:57:20;;;;;;;;;;;5.00;87.50;;;;;;9173042;19;20021;-67
2022/02/05 02:07:12;;;;;;;8.27;1.70;;;5.00;87.50;;;;;;9173377;19;20037;-66
2022/02/05 02:23:53;;;;;;;9.82;1.92;;;5.10;87.60;;;;;;9180552;19;20025;-66
2022/02/05 02:27:15;;;;;;;8.23;1.63;;;5.00;87.50;;;;;;9183060;19;20668;-66
2022/02/05 02:30:23;;;;;;;9.90;2.00;;;5.00;87.50;;;;;;9185678;19;20022;-66
2022/02/05 02:33:32;;;;;;;11.77;2.00;;;5.10;87.60;;;;;;9184434;19;20611;-66
2022/02/05 02:36:43;;;;;;;11.43;1.73;;;5.10;87.50;;;;;;9182444;19;20010;-66
2022/02/05 02:40:04;;;;;;;7.43;1.52;;;5.10;87.50;;;;;;9180735;19;20026;-66
2022/02/05 02:43:15;;;;;;;11.93;2.08;;;5.10;87.50;;;;;;9181234;19;20025;-66
2022/02/05 02:46:20;;;;;;;9.02;1.77;;;5.20;87.50;;;;;;9184083;19;20093;-66
2022/02/05 02:49:39;;;;;;;11.35;1.98;;;5.20;87.60;;;;;;9185158;19;20018;-66
2022/02/05 02:59:35;;;;;;;7.97;1.88;;;5.20;87.40;;;;;;9181194;19;20018;-66
2022/02/05 03:02:40;;;;;;;11.25;1.42;;;5.20;87.50;;;;;;9180207;19;20037;-66
2022/02/05 03:05:45;;;;;;;9.20;2.15;;;5.30;87.40;;;;;;9181471;19;20587;-66
2022/02/05 03:08:50;;;;;;;8.38;1.75;;;5.30;87.50;;;;;;9179909;19;20021;-66
2022/02/05 03:11:58;;;;;;;8.35;2.00;;;5.30;87.40;;;;;;9177868;19;20037;-67
2022/02/05 03:15:03;;;;;;;10.98;1.92;;;5.30;87.40;;;;;;9180494;19;20022;-67
2022/02/05 03:18:13;;;;;;;8.90;1.67;;;5.30;87.40;;;;;;9175891;19;20022;-66
2022/02/05 03:21:18;;;;;;;9.77;1.77;;;5.30;87.30;;;;;;9181307;19;20018;-66
2022/02/05 03:24:23;;;;;;;8.40;1.73;;;5.30;87.30;;;;;;9182624;19;20015;-66
2022/02/05 03:27:31;;;;;;;10.45;1.98;;;5.30;87.30;;;;;;9180056;19;20029;-66
2022/02/05 03:30:36;;;;;;;8.35;1.83;;;5.30;87.30;;;;;;9178593;19;20022;-66
2022/02/05 03:33:41;;;;;;;13.77;2.13;;;5.30;87.30;;;;;;9180987;19;20014;-66
2022/02/05 03:36:46;;;;;;;18.30;2.97;;;5.30;87.30;;;;;;9180477;19;20733;-66
2022/02/05 03:39:51;;;;;;;10.82;1.88;;;5.30;87.30;;;;;;9176858;19;20426;-66
2022/02/05 03:42:59;;;;;;;7.97;1.48;;;5.30;87.30;;;;;;9177234;19;20414;-66
2022/02/05 03:46:04;;;;;;;10.13;1.75;;;5.30;87.20;;;;;;9179291;19;20010;-66
2022/02/05 03:49:11;;;;;;;10.02;1.98;;;5.40;87.30;;;;;;9180116;19;20023;-67
2022/02/05 03:52:17;;;;;;;7.60;1.60;;;5.30;87.10;;;;;;9180904;19;20022;-66
2022/02/05 03:55:22;;;;;;;12.07;1.90;;;5.30;87.10;;;;;;9177210;19;20025;-67
2022/02/05 03:58:30;;;;;;;7.20;1.58;;;5.30;87.10;;;;;;9178906;19;20388;-66
2022/02/05 04:01:35;;;;;;;8.25;1.65;;;5.30;87.10;;;;;;9177776;19;20068;-67
2022/02/05 04:04:40;;;;;;;12.93;2.65;;;5.30;87.10;;;;;;9179049;19;20022;-66
2022/02/05 04:07:49;;;;;;;13.68;1.98;;;5.30;87.10;;;;;;9180867;19;20022;-66
2022/02/05 04:11:03;;;;;;;4.78;1.58;;;5.30;87.10;;;;;;9178815;19;20018;-66
2022/02/05 04:17:29;;;;;;;15.80;2.35;;;5.30;87.10;;;;;;9172643;19;20086;-66
2022/02/05 04:20:35;;;;;;;12.40;2.78;;;5.30;87.10;;;;;;9176622;19;20014;-66
2022/02/05 04:23:40;;;;;;;9.82;1.70;;;5.30;87.10;;;;;;9178133;19;20019;-66
2022/02/05 04:26:46;;;;;;;16.42;2.40;;;5.30;87.10;;;;;;9180285;19;20109;-66
2022/02/05 04:29:54;;;;;;;11.18;1.83;;;5.30;87.10;;;;;;9175470;19;20015;-66
2022/02/05 04:32:59;;;;;;;14.07;2.15;;;5.20;87.00;;;;;;9175902;19;20018;-66
2022/02/05 04:36:04;;;;;;;15.35;1.98;;;5.20;87.00;;;;;;9177813;19;20018;-66
2022/02/05 04:39:13;;;;;;;6.63;1.50;;;5.20;87.00;;;;;;9179582;19;20021;-66
2022/02/05 04:42:24;;;;;;;8.63;1.80;;;5.20;87.10;;;;;;9177746;19;20086;-66
2022/02/05 04:46:01;;;;;;;7.18;1.90;;;5.20;87.10;;;;;;9177854;19;20014;-66
2022/02/05 04:52:39;;;;;;;8.82;2.75;;;5.20;87.10;;;;;;9173584;19;20571;-66
2022/02/05 05:02:34;;;;;;;12.30;2.70;;;5.20;87.10;;;;;;9177273;19;20499;-66
2022/02/05 05:05:49;;;;;;;7.75;1.70;;;5.20;87.00;;;;;;9176915;19;20014;-66
2022/02/05 05:09:07;;;;;;;14.57;1.83;;;5.10;87.00;;;;;;9176438;19;20011;-66
2022/02/05 05:12:29;;;;;;;7.03;1.60;;;5.10;87.10;;;;;;9176286;19;20018;-67
2022/02/05 05:19:12;;;;;;;9.25;2.05;;;5.10;87.00;;;;;;9174842;19;20022;-67
2022/02/05 05:19:28;;;;;;;14.07;1.70;;;5.10;87.00;;;;;;9173503;19;20041;-67
2022/02/05 05:22:32;;;;;;;10.07;1.80;;;5.10;87.00;;;;;;9176816;19;20052;-66
2022/02/05 05:25:38;;;;;;;11.32;2.05;;;5.10;87.00;;;;;;9176848;19;20015;-66
2022/02/05 05:28:43;;;;;;;16.60;1.95;;;5.00;86.90;;;;;;9172562;19;20018;-67
2022/02/05 05:31:48;;;;;;;5.53;1.92;;;5.00;86.90;;;;;;9173058;19;20018;-66
2022/02/05 05:34:55;;;;;;;14.50;1.83;;;5.00;87.00;;;;;;9177753;19;20025;-66
2022/02/05 05:38:02;;;;;;;13.32;2.20;;;5.00;87.00;;;;;;9177283;19;20375;-66
2022/02/05 05:41:08;;;;;;;12.35;2.00;;;5.00;87.00;;;;;;9174551;19;20193;-66
2022/02/05 05:44:46;;;;;;;15.43;2.38;;;5.00;87.00;;;;;;9175486;19;20011;-66
2022/02/05 05:47:54;;;;;;;9.40;1.70;;;5.00;87.00;;;;;;9174823;19;20010;-66
2022/02/05 05:51:02;;;;;;;10.85;1.80;;;5.00;87.00;;;;;;9173836;19;20024;-67
2022/02/05 05:54:08;;;;;;;5.05;1.63;;;4.90;87.00;;;;;;9183653;19;20026;-66
2022/02/05 05:57:13;;;;;;;14.18;1.92;;;5.00;87.10;;;;;;9184220;19;20021;-67
2022/02/05 06:00:19;;;;;;;10.80;1.90;;;4.90;87.00;;;;;;9184348;19;20484;-66
2022/02/05 06:03:24;;;;;;;10.25;1.85;;;4.90;87.00;;;;;;9179855;19;20018;-66
2022/02/05 06:06:32;;;;;;;9.15;1.83;;;4.90;87.00;;;;;;9183346;19;20048;-66
2022/02/05 06:09:41;;;;;;;14.32;1.98;;;4.90;87.00;;;;;;9182480;19;20010;-66
2022/02/05 06:12:46;;;;;;;12.70;2.80;;;4.90;87.70;;;;;;9184940;19;20805;-66
2022/02/05 06:15:54;;;;;;;10.27;1.75;;;4.90;87.10;;;;;;9184482;19;20014;-66
2022/02/05 06:18:59;;;;;;;12.30;2.13;;;4.90;87.10;;;;;;9175935;19;20022;-66
2022/02/05 06:22:07;;;;;;;12.70;1.88;;;4.90;87.10;;;;;;9175122;19;20018;-68
2022/02/05 06:25:12;;;;;;;10.25;1.70;;;4.90;87.10;;;;;;9176550;19;20026;-65
2022/02/05 06:28:18;;;;;;;9.82;1.55;;;4.90;87.10;;;;;;9178994;19;20035;-66
2022/02/05 06:31:23;;;;;;;12.02;2.08;;;4.90;87.10;;;;;;9181314;19;20018;-66
2022/02/05 06:34:28;;;;;;;8.05;1.63;;;4.90;87.10;;;;;;9176820;19;20018;-68
2022/02/05 06:37:36;;;;;;;9.98;1.58;;;4.80;87.00;;;;;;9183190;19;20018;-66
2022/02/05 06:40:41;;;;;;;15.40;2.10;;;4.80;87.00;;;;;;9181349;19;20022;-66
2022/02/05 06:43:49;;;;;;;13.32;2.42;;;4.90;87.10;;;;;;9182640;19;20022;-67
2022/02/05 06:46:54;;;;;;;23.60;3.50;;;4.80;87.00;;;;;;9185785;19;20018;-66
2022/02/05 06:49:59;;;;;;;9.80;2.35;;;4.80;87.00;;;;;;9181184;19;20047;-66
2022/02/05 06:53:07;;;;;;;20.85;2.35;;;4.80;87.00;;;;;;9180035;19;20459;-66
2022/02/05 06:56:12;;;;;;;8.55;1.95;;;4.80;87.00;;;;;;9181280;19;20043;-66
2022/02/05 06:59:17;;;;;;;12.80;2.17;;;4.80;87.00;;;;;;9183311;19;20022;-66
2022/02/05 07:02:22;;;;;;;14.88;2.20;;;4.80;87.10;;;;;;9181035;19;20506;-66
2022/02/05 07:05:27;;;;;;;12.75;2.22;;;4.80;87.10;;;;;;9177664;19;20357;-66
2022/02/05 07:08:35;;;;;;;10.27;2.78;;;4.80;87.10;;;;;;9180657;19;20022;-66
2022/02/05 07:11:40;;;;;;;6.93;1.90;;;4.80;87.10;;;;;;9179904;19;20018;-66
2022/02/05 07:14:57;;;;;;;9.52;2.45;;;4.80;87.10;;;;;;9184278;19;20471;-67
2022/02/05 07:18:12;;;;;;;12.27;1.80;;;4.80;87.10;;;;;;9179566;19;20011;-66
2022/02/05 07:21:22;;;;;;;11.82;2.35;;;4.80;87.10;;;;;;9179000;19;20018;-66
2022/02/05 07:24:47;;;;;;;7.75;2.53;;;4.80;87.10;;;;;;9180568;19;20022;-66
2022/02/05 07:31:15;;;;;;;11.75;2.10;;;4.80;87.10;;;;;;9182144;19;20495;-66
2022/02/05 07:34:22;;;;;;;14.35;2.05;;;4.80;87.20;;;;;;9180841;19;20463;-66
2022/02/05 07:37:27;;;;;;;12.40;2.17;;;4.70;87.10;;;;;;9181413;19;20361;-66
2022/02/05 07:40:35;;;;;;;13.48;2.60;;;4.80;87.20;;;;;;9179218;19;20387;-66
2022/02/05 07:43:40;;;;;;;16.00;2.78;;;4.70;87.20;;;;;;9179477;19;20045;-66
2022/02/05 07:46:50;;;;;;;17.70;2.50;;;4.80;87.20;;;;;;9178291;19;20019;-66
2022/02/05 07:49:55;;;;;;;16.90;2.17;;;4.80;87.30;;;;;;9181109;19;20046;-66
2022/02/05 07:53:00;;;;;;;13.60;2.60;;;4.80;87.20;;;;;;9181050;19;20468;-66
2022/02/05 07:56:08;;;;;;;19.77;2.35;;;4.80;87.20;;;;;;9178101;19;20023;-66
2022/02/05 07:59:14;;;;;;;12.95;2.50;;;4.80;87.20;;;;;;9177535;19;20019;-66
2022/02/05 08:02:19;;;;;;;8.88;2.10;;;4.80;87.30;;;;;;9176856;19;20074;-66
2022/02/05 08:05:24;;;;;;;11.82;2.22;;;4.80;87.30;;;;;;9178482;19;20022;-66
2022/02/05 08:08:32;;;;;;;10.30;2.35;;;4.80;87.30;;;;;;9179067;19;20018;-67
2022/02/05 08:11:43;;;;;;;8.80;2.00;;;4.80;87.30;;;;;;9178954;19;20018;-66
2022/02/05 08:14:51;;;;;;;11.98;2.38;;;4.90;87.30;;;;;;9175914;19;20014;-66
2022/02/05 08:17:58;;;;;;;10.48;2.33;;;4.90;87.30;;;;;;9174948;19;20023;-66
2022/02/05 08:21:03;;;;;;;14.63;3.22;;;4.90;87.40;;;;;;9178309;19;20069;-66
2022/02/05 08:24:09;;;;;;;12.30;2.05;;;4.90;87.40;;;;;;9181163;19;20025;-67
2022/02/05 08:27:17;;;;;;;17.67;2.13;;;4.90;87.40;;;;;;9176308;19;20011;-66
2022/02/05 08:30:22;;;;;;;14.80;2.78;;;4.90;87.40;;;;;;9177682;19;20025;-66
2022/02/05 08:33:27;;;;;;;9.00;2.13;;;5.00;87.40;;;;;;9176726;19;20011;-66
2022/02/05 08:36:40;;;;;;;16.80;2.63;;;5.00;87.50;;;;;;9177306;19;20022;-66
2022/02/05 08:39:46;;;;;;;17.83;2.50;;;5.00;87.40;;;;;;9178210;19;20043;-67
2022/02/05 08:42:53;;;;;;;7.68;1.95;;;5.00;87.40;;;;;;9176223;19;20018;-66
2022/02/05 08:45:58;;;;;;;10.50;2.53;;;5.10;87.50;;;;;;9176572;19;20034;-68
2022/02/05 08:49:03;;;;;;;17.17;2.58;;;5.10;87.50;;;;;;9175884;19;20018;-67
2022/02/05 08:52:11;;;;;;;16.80;2.20;;;5.10;87.50;;;;;;9174604;19;20395;-66
2022/02/05 08:55:16;;;;;;;7.55;1.80;;;5.20;87.60;;;;;;9179481;19;20908;-70
2022/02/05 08:58:24;;;;;;;14.50;1.95;;;5.20;87.60;;;;;;9174679;19;20023;-66
2022/02/05 09:01:41;;;;;;;12.90;2.10;;;5.30;87.60;;;;;;9176313;19;20014;-68
2022/02/05 09:04:54;;;;;;;13.50;2.58;;;5.40;87.70;;;;;;9177135;19;20070;-66
2022/02/05 09:07:59;;;;;;;16.00;2.20;;;5.40;87.80;;;;;;9170801;19;20884;-67
2022/02/05 09:11:15;;;;;;;9.75;2.33;;;5.50;87.80;;;;;;9168907;19;20022;-66
2022/02/05 09:14:33;;;;;;;11.40;2.10;;;5.60;87.80;;;;;;9173136;19;20022;-66
2022/02/05 09:17:39;;;;;;;12.43;2.33;;;5.70;87.80;;;;;;9165381;19;20356;-67
2022/02/05 09:20:44;;;;;;;13.18;2.42;;;5.80;87.70;;;;;;9171752;19;20018;-66
2022/02/05 09:23:54;;;;;;;25.85;3.53;;;5.80;87.70;;;;;;9174801;19;20511;-66
2022/02/05 09:27:01;;;;;;;11.68;2.45;;;5.90;87.70;;;;;;9174266;19;20018;-66
2022/02/05 09:30:14;;;;;;;16.83;3.05;;;5.90;87.60;;;;;;9177704;19;20029;-66
2022/02/05 09:33:20;;;;;;;11.80;2.20;;;6.00;87.50;;;;;;9176748;19;20039;-66
2022/02/05 09:36:26;;;;;;;15.38;2.17;;;6.10;87.60;;;;;;9174562;19;20019;-66
2022/02/05 09:39:31;;;;;;;10.27;1.73;;;6.10;87.50;;;;;;9175946;19;20018;-66
2022/02/05 09:42:43;;;;;;;11.32;2.08;;;6.20;87.50;;;;;;9175672;19;20121;-66
2022/02/05 09:45:51;;;;;;;12.40;2.97;;;6.20;87.40;;;;;;9177610;19;20022;-67
2022/02/05 09:48:56;;;;;;;11.30;2.60;;;6.30;87.40;;;;;;9175561;19;20019;-66
2022/02/05 09:52:11;;;;;;;10.95;1.65;;;6.30;87.40;;;;;;9173495;19;20492;-66
2022/02/05 09:55:16;;;;;;;8.20;2.63;;;6.40;87.40;;;;;;9176252;19;20760;-66
2022/02/05 09:58:21;;;;;;;10.73;1.65;;;6.50;87.40;;;;;;9173420;19;20112;-66
2022/02/05 10:01:32;;;;;;;11.00;2.70;;;6.50;87.40;;;;;;9175819;19;20630;-68
2022/02/05 10:04:57;;;;;;;10.00;2.50;;;6.50;87.30;;;;;;9176041;19;20037;-66
2022/02/05 10:08:22;;;;;;;9.68;2.33;;;6.60;87.20;;;;;;9175340;19;20348;-66
2022/02/05 10:11:29;;;;;;;11.77;2.33;;;6.70;87.20;;;;;;9174808;19;20053;-66
2022/02/05 10:14:36;;;;;;;10.90;2.15;;;6.70;87.20;;;;;;9172675;19;20358;-66
2022/02/05 10:17:51;;;;;;;7.10;1.85;;;6.80;87.10;;;;;;9172351;19;20026;-67
2022/02/05 10:20:57;;;;;;;8.98;1.90;;;6.80;87.10;;;;;;9174183;19;20015;-67
2022/02/05 10:24:07;;;;;;;9.00;1.88;;;6.90;87.20;;;;;;9174254;19;20027;-66
2022/02/05 10:27:12;;;;;;;13.38;2.17;;;7.00;87.20;;;;;;9167989;19;20018;-67
2022/02/05 10:30:22;;;;;;;12.98;2.28;;;7.10;87.20;;;;;;9171905;19;20018;-67
2022/02/05 10:33:34;;;;;;;11.73;2.22;;;7.10;87.10;;;;;;9172108;19;20019;-67
2022/02/05 10:36:45;;;;;;;16.02;2.53;;;7.20;87.00;;;;;;9173240;19;20018;-67
2022/02/05 10:43:12;;;;;;;10.90;2.63;;;7.30;87.20;;;;;;9181960;19;20037;-67
2022/02/05 10:46:17;;;;;;;9.18;2.22;;;7.40;86.80;;;;;;9180958;19;20019;-66
2022/02/05 10:49:46;;;;;;;11.93;1.77;;;7.50;86.80;;;;;;9181903;19;20030;-67
2022/02/05 10:52:56;;;;;;;10.32;2.08;;;7.50;86.70;;;;;;9180295;19;20386;-66
2022/02/05 10:56:09;;;;;;;14.27;3.45;;;7.60;86.80;;;;;;9184394;19;20086;-67
2022/02/05 10:59:29;;;;;;;16.98;2.40;;;7.60;86.70;;;;;;9182801;19;20103;-66
2022/02/05 11:05:58;;;;;;;11.93;2.05;;;7.80;86.60;;;;;;9179603;19;20026;-67
2022/02/05 11:09:03;;;;;;;16.27;2.40;;;7.80;86.50;;;;;;9180534;19;20025;-66
2022/02/05 11:18:57;;;;;;;8.93;1.50;;;7.90;86.30;;;;;;9175679;19;20360;-67
2022/02/05 11:22:26;;;;;;;9.65;2.63;;;8.00;86.20;;;;;;9179463;19;20112;-66
2022/02/05 11:25:34;;;;;;;10.70;1.73;;;8.00;86.20;;;;;;9182687;19;20033;-66
2022/02/05 11:28:47;;;;;;;6.35;1.70;;;8.10;86.10;;;;;;9178448;19;20025;-67
2022/02/05 11:31:55;;;;;;;9.95;1.92;;;8.10;86.00;;;;;;9178399;19;20369;-67
2022/02/05 11:35:18;;;;;;;9.27;1.73;;;8.10;85.90;;;;;;9181369;19;20022;-66
2022/02/05 11:38:34;;;;;;;9.52;2.08;;;8.20;85.70;;;;;;9182114;19;20383;-66
2022/02/05 11:41:39;;;;;;;9.35;1.80;;;8.10;85.70;;;;;;9183005;19;20018;-66
2022/02/05 11:44:44;;;;;;;6.28;1.50;;;8.20;85.70;;;;;;9181958;19;20019;-66
2022/02/05 11:47:49;;;;;;;11.50;1.90;;;8.20;85.50;;;;;;9178340;19;20034;-66
2022/02/05 11:51:22;;;;;;;5.47;1.42;;;8.20;85.50;;;;;;9176743;19;20022;-67
2022/02/05 11:54:29;;;;;;;9.60;2.00;;;8.20;85.30;;;;;;9179489;19;20019;-66
2022/02/05 11:58:00;;;;;;;8.10;1.98;;;8.20;85.40;;;;;;9180295;19;20368;-66
2022/02/05 12:01:06;;;;;;;11.23;1.67;;;8.30;85.40;;;;;;9180150;19;20510;-66
2022/02/05 12:04:13;;;;;;;6.95;1.50;;;8.30;85.40;;;;;;9175917;19;20022;-66
2022/02/05 12:07:19;;;;;;;10.35;1.88;;;8.30;85.30;;;;;;9177294;19;20068;-66
2022/02/05 12:10:45;;;;;;;14.40;1.95;;;8.30;85.30;;;;;;9176643;19;20033;-66
2022/02/05 12:14:13;;;;;;;7.88;1.73;;;8.40;85.20;;;;;;9178575;19;20021;-66
2022/02/05 12:17:27;;;;;;;10.98;1.83;;;8.40;85.00;;;;;;9173660;19;20044;-67
2022/02/05 12:20:34;;;;;;;9.45;1.52;;;8.40;85.20;;;;;;9184289;19;20026;-68
2022/02/05 12:24:35;;;;;;;7.07;1.52;;;8.40;85.00;;;;;;9179586;19;20023;-67
2022/02/05 12:27:44;;;;;;;9.30;1.60;;;8.40;84.70;;;;;;9178656;19;20043;-67
2022/02/05 12:30:49;;;;;;;7.68;2.05;;;8.50;84.80;;;;;;9178230;19;20574;-66
2022/02/05 12:33:55;;;;;;;7.57;1.50;;;8.50;84.80;;;;;;9180343;19;20042;-67
2022/02/05 12:37:03;;;;;;;7.32;1.83;;;8.50;84.70;;;;;;9178670;19;20027;-67
2022/02/05 12:40:09;;;;;;;8.98;1.83;;;8.50;84.60;;;;;;9178775;19;20023;-68
2022/02/05 12:43:20;;;;;;;10.38;1.77;;;8.50;84.50;;;;;;9177006;19;20014;-66
2022/02/05 12:46:28;;;;;;;6.60;1.48;;;8.50;84.40;;;;;;9174827;19;20022;-69
2022/02/05 12:49:40;;;;;;;7.85;1.92;;;8.50;84.40;;;;;;9175013;19;20471;-66
2022/02/05 12:52:51;;;;;;;11.52;3.03;;;8.50;84.30;;;;;;9179635;19;20085;-66
2022/02/05 12:55:56;;;;;;;9.32;1.77;;;8.50;84.20;;;;;;9178996;19;20060;-66
2022/02/05 12:59:08;;;;;;;12.35;2.00;;;8.50;84.20;;;;;;9180343;19;20033;-66
2022/02/05 13:02:14;;;;;;;9.85;2.15;;;8.50;84.10;;;;;;9176122;19;20510;-66
2022/02/05 13:05:19;;;;;;;17.10;2.50;;;8.50;84.10;;;;;;9175833;19;20018;-66
2022/02/05 13:08:26;;;;;;;18.27;2.58;;;8.50;84.00;;;;;;9176238;19;20508;-66
2022/02/05 13:11:32;;;;;;;12.27;1.80;;;8.50;83.90;;;;;;9178959;19;20041;-66
2022/02/05 13:14:47;;;;;;;7.28;2.10;;;8.50;83.90;;;;;;9179162;19;20023;-67
2022/02/05 13:18:09;;;;;;;9.52;2.03;;;8.50;83.80;;;;;;9170340;19;20014;-66
2022/02/05 13:24:55;;;;;;;12.75;2.05;;;8.40;83.80;;;;;;9175785;19;20043;-66
2022/02/05 13:34:45;;;;;;;9.18;1.60;;;8.40;83.60;;;;;;9175880;19;20022;-66
2022/02/05 13:37:54;;;;;;;19.00;2.55;;;8.30;83.70;;;;;;9178693;19;20025;-67
2022/02/05 13:41:03;;;;;;;9.50;1.80;;;8.30;83.70;;;;;;9174961;19;20479;-66
2022/02/05 13:44:13;;;;;;;8.02;1.95;;;8.30;83.60;;;;;;9174399;19;20014;-66
2022/02/05 13:47:21;;;;;;;11.43;1.90;;;8.30;83.60;;;;;;9174936;19;20019;-67
2022/02/05 13:50:28;;;;;;;12.18;1.73;;;8.30;83.60;;;;;;9178213;19;20532;-66
2022/02/05 13:53:33;;;;;;;5.72;1.70;;;8.30;83.60;;;;;;9176044;19;20444;-66
2022/02/05 13:56:39;;;;;;;11.98;3.03;;;8.30;83.50;;;;;;9174091;19;20018;-66
2022/02/05 13:59:44;;;;;;;12.60;1.73;;;8.30;83.40;;;;;;9175818;19;20011;-66
2022/02/05 14:03:03;;;;;;;10.85;1.92;;;8.30;83.40;;;;;;9174298;19;20030;-66
2022/02/05 14:06:10;;;;;;;9.98;1.67;;;8.30;83.20;;;;;;9176368;19;20472;-66
2022/02/05 14:09:25;;;;;;;10.57;1.60;;;8.30;83.30;;;;;;9173202;19;20018;-66
2022/02/05 14:12:30;;;;;;;4.05;1.13;;;8.30;83.10;;;;;;9178497;19;20022;-66
2022/02/05 14:15:54;;;;;;;14.82;2.22;;;8.30;83.20;;;;;;9182524;19;20496;-68
2022/02/05 14:19:04;;;;;;;13.13;2.17;;;8.30;83.00;;;;;;9178714;19;20010;-66
2022/02/05 14:22:22;;;;;;;8.25;1.50;;;8.30;83.10;;;;;;9182850;19;20489;-66
2022/02/05 14:25:33;;;;;;;5.93;1.75;;;8.30;82.90;;;;;;9181753;19;20333;-66
2022/02/05 14:28:46;;;;;;;8.52;1.80;;;8.30;83.00;;;;;;9184659;19;20022;-66
2022/02/05 14:31:55;;;;;;;11.20;2.03;;;8.30;82.90;;;;;;9182764;19;20015;-66
2022/02/05 14:35:10;;;;;;;5.60;1.60;;;8.30;83.00;;;;;;9175075;19;20018;-66
2022/02/05 14:41:33;;;;;;;9.40;1.90;;;8.40;82.90;;;;;;9176794;19;20360;-67
2022/02/05 14:44:38;;;;;;;4.68;1.35;;;8.40;82.80;;;;;;9173549;19;20026;-66
2022/02/05 14:47:43;;;;;;;14.77;2.33;;;8.40;82.70;;;;;;9173452;19;20090;-66
2022/02/05 14:50:53;;;;;;;8.70;2.55;;;8.40;82.70;;;;;;9172954;19;20123;-66
2022/02/05 14:53:59;;;;;;;9.27;2.35;;;8.40;82.50;;;;;;9170772;19;20016;-66
2022/02/05 14:57:05;;;;;;;9.02;2.53;;;8.40;82.50;;;;;;9172470;19;20018;-66
2022/02/05 15:00:11;;;;;;;14.50;3.03;;;8.40;82.50;;;;;;9173399;19;20476;-66
2022/02/05 15:03:19;;;;;;;12.20;2.28;;;8.40;82.40;;;;;;9173553;19;20027;-66
2022/02/05 15:06:30;;;;;;;6.13;1.80;;;8.30;82.30;;;;;;9171526;19;20018;-66
2022/02/05 15:09:36;;;;;;;11.30;1.90;;;8.40;82.90;;;;;;9172519;19;20363;-66
2022/02/05 15:12:42;;;;;;;15.20;3.17;;;8.30;82.30;;;;;;9171529;19;20026;-66
2022/02/05 15:15:52;;;;;;;5.35;1.77;;;8.30;82.20;;;;;;9170691;19;20072;-65
2022/02/05 15:18:58;;;;;;;5.55;1.73;;;8.30;82.30;;;;;;9168340;19;20022;-66
2022/02/05 15:22:05;;;;;;;7.22;2.03;;;8.30;82.20;;;;;;9168877;19;20400;-65
2022/02/05 15:25:12;;;;;;;10.45;2.17;;;8.30;82.10;;;;;;9168057;19;20025;-66
2022/02/05 15:28:17;;;;;;;9.15;1.80;;;8.20;82.10;;;;;;9171783;19;20026;-66
2022/02/05 15:31:23;;;;;;;4.22;1.45;;;8.30;82.10;;;;;;9175558;19;20018;-66
2022/02/05 15:34:28;;;;;;;8.95;2.05;;;8.20;82.10;;;;;;9172494;19;20019;-66
2022/02/05 15:37:36;;;;;;;7.53;1.75;;;8.20;82.00;;;;;;9170003;19;20015;-65
2022/02/05 15:43:58;;;;;;;12.57;1.95;;;8.20;82.00;;;;;;9169763;19;20858;-67
2022/02/05 15:47:03;;;;;;;7.80;1.67;;;8.20;81.90;;;;;;9172779;19;20014;-66
2022/02/05 15:50:12;;;;;;;8.05;1.73;;;8.20;81.90;;;;;;9172469;19;20019;-66
2022/02/05 15:53:21;;;;;;;13.25;3.30;;;8.20;82.00;;;;;;9170049;19;20029;-68
2022/02/05 15:56:34;;;;;;;11.98;2.20;;;8.20;81.90;;;;;;9170651;19;20014;-66
2022/02/05 15:59:55;;;;;;;10.10;2.15;;;8.10;81.90;;;;;;9169731;19;20048;-66
2022/02/05 16:03:02;;;;;;;10.63;1.80;;;8.10;81.90;;;;;;9172107;19;20495;-66
2022/02/05 16:06:07;;;;;;;7.97;1.83;;;8.10;81.80;;;;;;9168166;19;20014;-66
2022/02/05 16:09:14;;;;;;;8.25;2.40;;;8.10;81.90;;;;;;9170906;19;20057;-65
2022/02/05 16:12:20;;;;;;;11.10;1.67;;;8.10;81.80;;;;;;9166082;19;20018;-67
2022/02/05 16:15:25;;;;;;;16.98;2.85;;;8.10;81.80;;;;;;9167424;19;20025;-67
2022/02/05 16:18:31;;;;;;;5.20;1.75;;;8.10;81.80;;;;;;9165126;19;20011;-67
2022/02/05 16:21:36;;;;;;;6.53;1.50;;;8.10;81.80;;;;;;9170513;19;20019;-67
2022/02/05 16:24:43;;;;;;;13.10;2.55;;;8.10;82.40;;;;;;9165750;19;20029;-67
2022/02/05 16:27:50;;;;;;;7.05;1.52;;;8.00;81.70;;;;;;9167512;19;20033;-68
2022/02/05 16:30:58;;;;;;;9.85;1.92;;;8.00;81.70;;;;;;9164810;19;20357;-67
2022/02/05 16:34:10;;;;;;;18.77;2.55;;;8.00;81.70;;;;;;9169027;19;20022;-67
2022/02/05 16:37:16;;;;;;;8.85;1.83;;;8.00;81.70;;;;;;9168477;19;20499;-67
2022/02/05 16:40:23;;;;;;;10.70;1.70;;;8.00;81.90;;;;;;9169413;19;20006;-67
2022/02/05 16:43:28;;;;;;;9.13;2.17;;;8.00;81.80;;;;;;9166975;19;20022;-67
2022/02/05 16:46:38;;;;;;;9.80;2.03;;;8.00;81.80;;;;;;9167479;19;20026;-67
2022/02/05 16:49:43;;;;;;;11.77;2.17;;;8.00;81.80;;;;;;9172751;19;20455;-67
2022/02/05 16:52:50;;;;;;;12.45;2.10;;;8.00;81.80;;;;;;9167516;19;20869;-67
2022/02/05 16:55:58;;;;;;;6.68;1.48;;;8.00;81.90;;;;;;9168884;19;20010;-68
2022/02/05 16:59:04;;;;;;;11.43;1.83;;;8.00;81.90;;;;;;9165959;19;20022;-67
2022/02/05 17:02:10;;;;;;;15.88;2.63;;;8.00;81.90;;;;;;9165977;19;20014;-67
2022/02/05 17:05:15;;;;;;;13.30;2.42;;;8.00;81.90;;;;;;9168033;19;20019;-67
2022/02/05 17:08:21;;;;;;;7.72;1.77;;;8.00;81.90;;;;;;9168816;19;20018;-67
2022/02/05 17:11:28;;;;;;;10.02;2.55;;;8.00;81.90;;;;;;9168208;19;20021;-67
2022/02/05 17:14:37;;;;;;;4.80;1.70;;;8.00;81.90;;;;;;9163206;19;20056;-67
2022/02/05 17:17:44;;;;;;;10.73;1.90;;;8.00;81.80;;;;;;9163575;19;20499;-67
2022/02/05 17:20:53;;;;;;;7.60;1.80;;;8.00;81.80;;;;;;9173624;19;20022;-67
2022/02/05 17:23:59;;;;;;;9.13;2.35;;;8.10;81.90;;;;;;9172559;19;20368;-67
2022/02/05 17:27:07;;;;;;;7.53;2.13;;;8.00;81.80;;;;;;9171073;19;20022;-67
2022/02/05 17:30:13;;;;;;;9.25;2.42;;;8.00;81.80;;;;;;9173008;19;20082;-67
2022/02/05 17:33:17;;;;;;;10.90;2.30;;;8.10;81.90;;;;;;9174219;19;20142;-67
2022/02/05 17:36:25;;;;;;;15.90;3.22;;;8.00;81.80;;;;;;9175862;19;20029;-67
2022/02/05 17:39:30;;;;;;;9.82;2.17;;;8.10;81.90;;;;;;9173059;19;20018;-67
2022/02/05 17:42:38;;;;;;;10.68;2.35;;;8.10;81.90;;;;;;9176390;19;20011;-67
2022/02/05 17:45:42;;;;;;;12.98;2.78;;;8.10;81.80;;;;;;9172209;19;20014;-67
2022/02/05 17:48:48;;;;;;;12.55;2.60;;;8.10;81.90;;;;;;9171193;19;20029;-67
2022/02/05 17:51:52;;;;;;;9.95;2.42;;;8.10;81.80;;;;;;9173997;19;20018;-68
2022/02/05 17:54:59;;;;;;;13.80;2.45;;;8.10;81.80;;;;;;9169810;19;20018;-67
2022/02/05 17:58:07;;;;;;;11.13;2.65;;;8.10;81.80;;;;;;9166902;19;20026;-67
2022/02/05 18:01:16;;;;;;;18.23;3.90;;;8.10;81.80;;;;;;9166349;19;20019;-67
2022/02/05 18:04:22;;;;;;;12.85;2.75;;;8.10;81.90;;;;;;9166819;19;20021;-67
2022/02/05 18:07:42;;;;;;;13.27;2.58;;;8.10;81.90;;;;;;9163893;19;20491;-67
2022/02/05 18:10:52;;;;;;;10.25;2.75;;;8.10;81.90;;;;;;9168589;19;20707;-67
2022/02/05 18:14:19;;;;;;;11.88;2.42;;;8.10;82.00;;;;;;9169787;19;20546;-68
2022/02/05 18:17:24;;;;;;;9.15;3.50;;;8.10;82.00;;;;;;9163180;19;20027;-67
2022/02/05 18:20:32;;;;;;;9.68;2.97;;;8.00;82.00;;;;;;9167385;19;20015;-69
2022/02/05 18:23:37;;;;;;;11.15;2.55;;;8.00;82.00;;;;;;9168216;19;20520;-67
2022/02/05 18:26:42;;;;;;;17.95;2.72;;;8.00;82.10;;;;;;9165252;19;20139;-67